createdAt,value
2023-03-06T00:00:49.467Z,28.08
2023-03-06T00:03:16.077Z,23.15
2023-03-06T00:05:42.588Z,18.00
2023-03-06T00:08:09.006Z,18.15
2023-03-06T00:10:35.619Z,17.08
2023-03-06T00:13:07.713Z,16.20
2023-03-06T00:15:34.420Z,16.25
2023-03-06T00:18:04.335Z,16.42
2023-03-06T00:20:31.315Z,18.00
2023-03-06T00:22:57.671Z,13.98
2023-03-06T00:25:24.984Z,19.35
2023-03-06T00:27:51.852Z,17.92
2023-03-06T00:30:21.358Z,17.42
2023-03-06T00:32:48.561Z,19.27
2023-03-06T00:35:15.847Z,17.52
2023-03-06T00:37:43.853Z,18.45
2023-03-06T00:40:14.973Z,20.35
2023-03-06T00:42:41.437Z,17.95
2023-03-06T00:45:08.598Z,16.40
2023-03-06T00:47:34.965Z,16.63
2023-03-06T00:50:01.365Z,15.55
2023-03-06T00:52:27.688Z,14.85
2023-03-06T00:54:54.011Z,16.33
2023-03-06T00:57:20.365Z,17.08
2023-03-06T00:59:46.764Z,19.77
2023-03-06T01:02:13.211Z,17.67
2023-03-06T01:04:39.580Z,18.40
2023-03-06T01:07:05.951Z,19.95
2023-03-06T01:09:32.494Z,19.65
2023-03-06T01:11:58.860Z,17.73
2023-03-06T01:14:25.860Z,16.55
2023-03-06T01:16:52.213Z,20.25
2023-03-06T01:19:18.591Z,15.70
2023-03-06T01:21:45.353Z,19.73
2023-03-06T01:24:11.682Z,16.73
2023-03-06T01:26:38.029Z,15.45
2023-03-06T01:29:04.420Z,21.30
2023-03-06T01:31:30.819Z,17.40
2023-03-06T01:33:57.229Z,17.50
2023-03-06T01:36:23.631Z,17.50
2023-03-06T01:38:50.053Z,17.25
2023-03-06T01:41:17.231Z,15.43
2023-03-06T01:43:45.871Z,16.45
2023-03-06T01:46:42.125Z,16.67
2023-03-06T01:49:20.789Z,17.48
2023-03-06T01:52:05.343Z,16.80
2023-03-06T01:54:36.167Z,22.35
2023-03-06T01:57:11.520Z,12.18
2023-03-06T01:59:40.601Z,14.82
2023-03-06T02:02:10.235Z,21.27
2023-03-06T02:04:39.476Z,17.83
2023-03-06T02:07:08.086Z,16.48
2023-03-06T02:09:36.878Z,16.33
2023-03-06T02:12:08.475Z,17.20
2023-03-06T02:14:34.968Z,16.15
2023-03-06T02:17:01.468Z,18.83
2023-03-06T02:20:00.645Z,21.65
2023-03-06T02:22:36.280Z,17.42
2023-03-06T02:25:31.968Z,18.77
2023-03-06T02:27:58.736Z,17.52
2023-03-06T02:30:27.549Z,16.48
2023-03-06T02:32:54.485Z,18.05
2023-03-06T02:35:30.361Z,18.58
2023-03-06T02:38:02.485Z,19.90
2023-03-06T02:40:29.172Z,19.20
2023-03-06T02:42:57.394Z,18.63
2023-03-06T02:45:31.844Z,23.10
2023-03-06T02:47:58.182Z,17.70
2023-03-06T02:50:24.658Z,20.17
2023-03-06T02:52:51.016Z,19.20
2023-03-06T02:55:17.560Z,19.85
2023-03-06T02:57:43.923Z,19.05
2023-03-06T03:00:12.778Z,20.42
2023-03-06T03:02:39.094Z,23.20
2023-03-06T03:05:06.010Z,18.02
2023-03-06T03:07:32.666Z,17.23
2023-03-06T03:10:00.203Z,19.88
2023-03-06T03:12:28.524Z,20.73
2023-03-06T03:14:55.908Z,21.48
2023-03-06T03:17:23.252Z,19.10
2023-03-06T03:19:49.641Z,19.55
2023-03-06T03:22:17.031Z,20.60
2023-03-06T03:24:43.849Z,19.92
2023-03-06T03:27:11.034Z,18.88
2023-03-06T03:29:37.717Z,21.48
2023-03-06T03:32:04.716Z,21.38
2023-03-06T03:34:31.094Z,18.98
2023-03-06T03:36:57.542Z,22.88
2023-03-06T03:39:24.027Z,22.60
2023-03-06T03:41:50.366Z,20.17
2023-03-06T03:44:16.758Z,23.90
2023-03-06T03:46:43.396Z,25.45
2023-03-06T03:49:15.406Z,26.67
2023-03-06T03:51:43.461Z,20.50
2023-03-06T03:54:10.165Z,22.15
2023-03-06T03:59:16.846Z,25.00
2023-03-06T04:01:55.921Z,22.33
2023-03-06T04:04:23.065Z,24.98
2023-03-06T04:06:49.513Z,24.50
2023-03-06T04:09:17.804Z,25.42
2023-03-06T04:11:44.479Z,26.98
2023-03-06T04:14:10.875Z,26.17
2023-03-06T04:16:37.288Z,22.85
2023-03-06T04:19:03.757Z,22.08
2023-03-06T04:21:30.929Z,23.13
2023-03-06T04:23:58.412Z,21.20
2023-03-06T04:26:24.799Z,20.42
2023-03-06T04:28:51.311Z,22.83
2023-03-06T04:31:18.608Z,21.10
2023-03-06T04:33:44.938Z,21.20
2023-03-06T04:36:24.809Z,21.10
2023-03-06T04:38:52.245Z,18.85
2023-03-06T04:41:19.007Z,20.83
2023-03-06T04:43:46.124Z,21.50
2023-03-06T04:46:12.568Z,21.85
2023-03-06T04:48:38.936Z,18.42
2023-03-06T04:51:05.738Z,20.27
2023-03-06T04:53:32.734Z,20.02
2023-03-06T04:55:59.390Z,20.88
2023-03-06T04:58:25.795Z,22.98
2023-03-06T05:00:52.183Z,19.42
2023-03-06T05:03:18.549Z,22.33
2023-03-06T05:05:45.073Z,19.45
2023-03-06T05:08:15.976Z,21.13
2023-03-06T05:10:43.260Z,20.10
2023-03-06T05:13:09.870Z,20.77
2023-03-06T05:15:36.383Z,21.77
2023-03-06T05:18:02.880Z,19.73
2023-03-06T05:20:29.265Z,19.92
2023-03-06T05:22:56.746Z,20.02
2023-03-06T05:25:23.082Z,24.45
2023-03-06T05:27:49.408Z,23.15
2023-03-06T05:30:16.034Z,25.73
2023-03-06T05:32:42.734Z,21.88
2023-03-06T05:35:16.603Z,22.77
2023-03-06T05:37:42.949Z,25.25
2023-03-06T05:40:10.193Z,25.00
2023-03-06T05:42:36.536Z,23.38
2023-03-06T05:45:04.393Z,24.45
2023-03-06T05:47:31.570Z,24.58
2023-03-06T05:49:58.095Z,25.35
2023-03-06T05:52:24.685Z,19.88
2023-03-06T05:54:52.576Z,29.08
2023-03-06T05:57:23.013Z,23.67
2023-03-06T05:59:50.076Z,23.23
2023-03-06T06:02:17.522Z,27.42
2023-03-06T06:04:43.968Z,26.75
2023-03-06T06:07:13.997Z,25.08
2023-03-06T06:09:40.552Z,28.83
2023-03-06T06:12:07.222Z,31.05
2023-03-06T06:14:34.597Z,25.55
2023-03-06T06:17:01.210Z,34.50
2023-03-06T06:19:31.325Z,29.90
2023-03-06T06:21:57.936Z,27.67
2023-03-06T06:24:26.005Z,26.98
2023-03-06T06:26:54.743Z,25.63
2023-03-06T06:29:22.226Z,26.90
2023-03-06T06:31:49.531Z,25.95
2023-03-06T06:34:16.240Z,33.88
2023-03-06T06:36:43.472Z,25.38
2023-03-06T06:39:13.376Z,24.67
2023-03-06T06:41:57.023Z,25.77
2023-03-06T06:44:26.041Z,29.92
2023-03-06T06:47:21.884Z,27.85
2023-03-06T06:49:39.473Z,31.70
2023-03-06T06:52:06.336Z,31.85
2023-03-06T06:54:34.281Z,27.25
2023-03-06T06:57:00.609Z,36.03
2023-03-06T06:59:27.036Z,35.28
2023-03-06T07:01:53.559Z,34.72
2023-03-06T07:04:20.217Z,31.00
2023-03-06T07:06:46.897Z,38.13
2023-03-06T07:09:13.927Z,42.92
2023-03-06T07:11:40.761Z,30.58
2023-03-06T07:14:07.264Z,35.33
2023-03-06T07:16:33.570Z,31.88
2023-03-06T07:18:59.880Z,28.20
2023-03-06T07:21:26.213Z,28.50
2023-03-06T07:23:52.530Z,25.42
2023-03-06T07:26:18.848Z,28.08
2023-03-06T07:28:52.512Z,26.17
2023-03-06T07:31:25.472Z,28.55
2023-03-06T07:33:53.178Z,31.48
2023-03-06T07:36:20.921Z,42.90
2023-03-06T07:38:47.630Z,126.45
2023-03-06T07:41:16.188Z,96.30
2023-03-06T07:43:44.584Z,85.30
2023-03-06T07:46:13.412Z,95.07
2023-03-06T07:48:40.535Z,80.03
2023-03-06T07:51:18.636Z,80.30
2023-03-06T07:53:45.676Z,54.83
2023-03-06T07:56:12.902Z,53.75
2023-03-06T07:58:41.456Z,49.50
2023-03-06T08:01:10.812Z,67.30
2023-03-06T08:03:37.454Z,45.42
2023-03-06T08:06:09.440Z,50.65
2023-03-06T08:08:37.560Z,45.45
2023-03-06T08:11:03.978Z,39.45
2023-03-06T08:13:30.368Z,37.85
2023-03-06T08:15:56.797Z,47.47
2023-03-06T08:18:23.156Z,38.10
2023-03-06T08:20:49.487Z,36.60
2023-03-06T08:23:15.978Z,39.03
2023-03-06T08:25:42.307Z,36.83
2023-03-06T08:28:08.618Z,37.60
2023-03-06T08:30:34.989Z,38.25
2023-03-06T08:33:01.373Z,37.03
2023-03-06T08:35:27.866Z,34.88
2023-03-06T08:37:54.217Z,36.97
2023-03-06T08:40:20.682Z,31.17
2023-03-06T08:42:47.770Z,29.45
2023-03-06T08:45:14.093Z,34.25
2023-03-06T08:47:40.491Z,32.22
2023-03-06T08:50:07.145Z,31.60
2023-03-06T08:52:33.496Z,27.80
2023-03-06T08:55:03.342Z,29.10
2023-03-06T08:57:30.358Z,32.70
2023-03-06T08:59:56.808Z,32.63
2023-03-06T09:02:23.324Z,33.83
2023-03-06T09:04:49.696Z,32.17
2023-03-06T09:07:16.042Z,33.70
2023-03-06T09:09:42.564Z,35.00
2023-03-06T09:12:08.868Z,34.05
2023-03-06T09:14:35.228Z,37.60
2023-03-06T09:17:01.509Z,30.85
2023-03-06T09:19:27.860Z,29.85
2023-03-06T09:21:54.248Z,28.20
2023-03-06T09:24:20.559Z,27.42
2023-03-06T09:26:48.821Z,30.05
2023-03-06T09:29:17.337Z,30.75
2023-03-06T09:31:44.382Z,33.60
2023-03-06T09:34:10.726Z,31.55
2023-03-06T09:36:49.505Z,29.60
2023-03-06T09:39:21.527Z,33.55
2023-03-06T09:41:49.492Z,33.63
2023-03-06T09:44:19.805Z,37.63
2023-03-06T09:46:55.366Z,38.63
2023-03-06T09:49:37.624Z,30.60
2023-03-06T09:52:29.229Z,36.00
2023-03-06T09:55:14.635Z,62.58
2023-03-06T09:58:08.705Z,44.58
2023-03-06T10:00:43.676Z,43.00
2023-03-06T10:03:29.735Z,35.17
2023-03-06T10:06:08.342Z,31.50
2023-03-06T10:08:51.286Z,33.65
2023-03-06T10:11:48.647Z,31.70
2023-03-06T10:14:35.883Z,35.72
2023-03-06T10:17:03.739Z,31.15
2023-03-06T10:19:35.939Z,30.20
2023-03-06T10:22:11.411Z,30.38
2023-03-06T10:25:02.996Z,29.23
2023-03-06T10:27:42.644Z,30.55
2023-03-06T10:30:27.380Z,30.95
2023-03-06T10:33:08.448Z,28.58
2023-03-06T10:35:48.645Z,34.35
2023-03-06T10:38:23.022Z,34.80
2023-03-06T10:40:58.346Z,30.15
2023-03-06T10:43:25.402Z,28.88
2023-03-06T10:45:53.184Z,28.58
2023-03-06T10:48:23.174Z,27.55
2023-03-06T10:50:50.288Z,25.13
2023-03-06T10:53:23.274Z,23.02
2023-03-06T10:55:58.159Z,24.73
2023-03-06T10:58:30.101Z,26.13
2023-03-06T11:01:19.547Z,23.80
2023-03-06T11:03:47.598Z,25.42
2023-03-06T11:06:37.636Z,25.05
2023-03-06T11:09:23.493Z,26.25
2023-03-06T11:11:51.205Z,25.27
2023-03-06T11:14:27.600Z,25.67
2023-03-06T11:16:54.077Z,27.65
2023-03-06T11:19:27.869Z,31.48
2023-03-06T11:22:04.593Z,28.33
2023-03-06T11:24:42.169Z,26.42
2023-03-06T11:27:34.240Z,30.35
2023-03-06T11:30:05.343Z,28.30
2023-03-06T11:32:43.648Z,28.85
2023-03-06T11:35:16.500Z,29.05
2023-03-06T11:37:49.378Z,27.65
2023-03-06T11:40:41.756Z,29.33
2023-03-06T11:43:29.881Z,34.38
2023-03-06T11:45:59.175Z,33.60
2023-03-06T11:48:35.438Z,30.80
2023-03-06T11:51:15.992Z,41.50
2023-03-06T11:53:42.841Z,26.95
2023-03-06T11:56:28.842Z,28.50
2023-03-06T11:59:05.207Z,27.67
2023-03-06T12:01:51.942Z,34.60
2023-03-06T12:04:41.252Z,27.30
2023-03-06T12:07:40.793Z,27.80
2023-03-06T12:10:18.816Z,27.85
2023-03-06T12:12:54.320Z,28.15
2023-03-06T12:15:46.983Z,24.67
2023-03-06T12:18:50.769Z,23.00
2023-03-06T12:21:37.841Z,23.67
2023-03-06T12:24:19.869Z,52.83
2023-03-06T12:26:58.844Z,27.17
2023-03-06T12:29:40.728Z,23.15
2023-03-06T12:32:22.382Z,28.25
2023-03-06T12:35:08.613Z,26.33
2023-03-06T12:38:00.934Z,27.08
2023-03-06T12:40:54.387Z,23.65
2023-03-06T12:43:40.157Z,22.33
2023-03-06T12:46:15.244Z,21.42
2023-03-06T12:48:45.819Z,20.23
2023-03-06T12:51:16.612Z,23.27
2023-03-06T12:53:44.469Z,25.60
2023-03-06T12:56:15.410Z,21.58
2023-03-06T12:58:47.885Z,20.13
2023-03-06T13:01:37.523Z,22.20
2023-03-06T13:04:44.259Z,21.60
2023-03-06T13:07:52.730Z,22.98
2023-03-06T13:10:27.322Z,20.77
2023-03-06T13:12:55.938Z,22.95
2023-03-06T13:15:42.539Z,23.55
2023-03-06T13:18:21.239Z,19.65
2023-03-06T13:20:49.429Z,20.27
2023-03-06T13:23:34.837Z,19.45
2023-03-06T13:26:10.571Z,22.67
2023-03-06T13:28:50.005Z,22.75
2023-03-06T13:31:28.616Z,22.90
2023-03-06T13:34:01.060Z,24.23
2023-03-06T13:36:30.464Z,40.20
2023-03-06T13:39:01.948Z,38.40
2023-03-06T13:41:31.264Z,38.10
2023-03-06T13:44:05.938Z,25.88
2023-03-06T13:46:35.462Z,26.80
2023-03-06T13:49:07.601Z,26.50
2023-03-06T13:51:40.552Z,26.40
2023-03-06T13:54:28.297Z,27.65
2023-03-06T13:57:27.179Z,27.17
2023-03-06T14:00:11.287Z,24.52
2023-03-06T14:02:46.454Z,26.33
2023-03-06T14:05:15.672Z,28.75
2023-03-06T14:07:45.396Z,23.58
2023-03-06T14:10:21.332Z,25.20
2023-03-06T14:12:50.601Z,23.08
2023-03-06T14:15:18.850Z,27.13
2023-03-06T14:18:14.522Z,23.27
2023-03-06T14:20:45.039Z,22.60
2023-03-06T14:23:21.357Z,29.40
2023-03-06T14:25:54.657Z,26.20
2023-03-06T14:28:26.648Z,28.58
2023-03-06T14:30:54.913Z,25.65
2023-03-06T14:33:30.682Z,26.73
2023-03-06T14:36:01.604Z,31.13
2023-03-06T14:38:34.158Z,28.60
2023-03-06T14:41:01.384Z,29.10
2023-03-06T14:43:28.123Z,26.80
2023-03-06T14:45:57.500Z,27.63
2023-03-06T14:48:38.330Z,29.75
2023-03-06T14:51:05.728Z,26.42
2023-03-06T14:53:34.003Z,28.42
2023-03-06T14:56:05.075Z,31.60
2023-03-06T14:58:43.813Z,30.15
2023-03-06T15:01:15.533Z,27.20
2023-03-06T15:03:51.192Z,30.40
2023-03-06T15:06:22.418Z,29.42
2023-03-06T15:11:20.574Z,33.28
2023-03-06T15:14:00.951Z,32.35
2023-03-06T15:16:30.387Z,38.07
2023-03-06T15:19:04.320Z,41.33
2023-03-06T15:21:36.269Z,33.83
2023-03-06T15:24:30.793Z,32.83
2023-03-06T15:27:01.703Z,28.67
2023-03-06T15:29:28.148Z,31.90
2023-03-06T15:32:24.453Z,31.45
2023-03-06T15:35:28.483Z,31.50
2023-03-06T15:37:55.538Z,29.42
2023-03-06T15:40:24.439Z,31.00
2023-03-06T15:42:50.843Z,29.23
2023-03-06T15:45:20.484Z,34.78
2023-03-06T15:47:48.729Z,30.60
2023-03-06T15:50:17.855Z,29.83
2023-03-06T15:52:45.212Z,31.90
2023-03-06T15:55:13.143Z,26.02
2023-03-06T15:57:46.359Z,25.27
2023-03-06T16:00:27.409Z,26.98
2023-03-06T16:02:58.264Z,26.40
2023-03-06T16:05:25.695Z,25.15
2023-03-06T16:07:52.361Z,28.83
2023-03-06T16:10:21.168Z,28.90
2023-03-06T16:12:50.411Z,27.75
2023-03-06T16:15:20.045Z,28.55
2023-03-06T16:17:47.174Z,25.75
2023-03-06T16:20:19.453Z,27.95
2023-03-06T16:22:46.875Z,33.20
2023-03-06T16:25:14.298Z,25.38
2023-03-06T16:27:43.690Z,29.30
2023-03-06T16:30:18.878Z,28.65
2023-03-06T16:32:46.196Z,27.17
2023-03-06T16:35:13.813Z,28.30
2023-03-06T16:37:41.110Z,27.52
2023-03-06T16:40:32.441Z,28.27
2023-03-06T16:42:58.721Z,29.23
2023-03-06T16:45:25.027Z,30.40
2023-03-06T16:47:51.574Z,27.05
2023-03-06T16:50:33.293Z,25.30
2023-03-06T16:52:59.801Z,25.13
2023-03-06T16:55:27.193Z,27.05
2023-03-06T16:57:54.314Z,39.10
2023-03-06T17:00:31.156Z,36.63
2023-03-06T17:03:20.662Z,40.72
2023-03-06T17:05:46.948Z,38.42
2023-03-06T17:08:13.633Z,27.13
2023-03-06T17:10:41.872Z,30.45
2023-03-06T17:13:08.539Z,37.58
2023-03-06T17:15:34.855Z,52.42
2023-03-06T17:18:01.198Z,56.67
2023-03-06T17:20:27.605Z,40.65
2023-03-06T17:22:54.187Z,39.17
2023-03-06T17:25:20.542Z,47.28
2023-03-06T17:27:46.865Z,54.55
2023-03-06T17:30:13.501Z,48.90
2023-03-06T17:32:40.886Z,40.60
2023-03-06T17:35:09.311Z,35.67
2023-03-06T17:37:35.813Z,42.63
2023-03-06T17:40:02.148Z,65.25
2023-03-06T17:42:28.612Z,55.30
2023-03-06T17:44:55.009Z,43.35
2023-03-06T17:47:21.337Z,38.17
2023-03-06T17:49:47.703Z,32.60
2023-03-06T17:52:14.006Z,28.55
2023-03-06T17:54:40.421Z,32.05
2023-03-06T17:57:06.749Z,27.10
2023-03-06T17:59:36.368Z,28.48
2023-03-06T18:02:02.909Z,27.33
2023-03-06T18:04:29.810Z,26.70
2023-03-06T18:06:57.057Z,25.88
2023-03-06T18:09:23.980Z,26.92
2023-03-06T18:11:50.310Z,25.50
2023-03-06T18:14:16.630Z,28.05
2023-03-06T18:16:43.009Z,25.98
2023-03-06T18:19:10.923Z,26.92
2023-03-06T18:21:38.885Z,24.73
2023-03-06T18:24:05.619Z,26.92
2023-03-06T18:26:32.089Z,26.95
2023-03-06T18:29:03.476Z,25.40
2023-03-06T18:31:34.460Z,27.50
2023-03-06T18:34:10.127Z,26.92
2023-03-06T18:36:37.023Z,29.67
2023-03-06T18:39:06.072Z,30.40
2023-03-06T18:41:32.732Z,28.58
2023-03-06T18:44:00.580Z,29.45
2023-03-06T18:46:32.783Z,29.63
2023-03-06T18:48:59.388Z,28.60
2023-03-06T18:51:25.792Z,28.85
2023-03-06T18:53:52.208Z,31.02
2023-03-06T18:56:21.708Z,31.55
2023-03-06T18:58:48.206Z,30.73
2023-03-06T19:01:14.944Z,34.00
2023-03-06T19:03:41.408Z,26.95
2023-03-06T19:06:13.288Z,31.73
2023-03-06T19:08:40.328Z,33.38
2023-03-06T19:11:09.586Z,32.00
2023-03-06T19:13:36.501Z,35.33
2023-03-06T19:16:03.152Z,32.72
2023-03-06T19:18:30.156Z,34.00
2023-03-06T19:21:10.126Z,34.35
2023-03-06T19:23:36.500Z,33.78
2023-03-06T19:26:02.814Z,32.92
2023-03-06T19:28:29.469Z,31.88
2023-03-06T19:30:56.870Z,33.92
2023-03-06T19:33:23.201Z,33.25
2023-03-06T19:35:49.614Z,32.10
2023-03-06T19:38:16.040Z,30.25
2023-03-06T19:40:51.742Z,32.72
2023-03-06T19:43:18.085Z,31.40
2023-03-06T19:45:44.862Z,38.08
2023-03-06T19:48:12.398Z,35.30
2023-03-06T19:50:39.866Z,31.95
2023-03-06T19:53:07.688Z,31.77
2023-03-06T19:55:34.691Z,32.45
2023-03-06T19:58:01.068Z,31.48
2023-03-06T20:00:27.876Z,33.72
2023-03-06T20:02:54.193Z,30.45
2023-03-06T20:05:20.544Z,34.47
2023-03-06T20:07:46.932Z,30.90
2023-03-06T20:10:13.268Z,30.65
2023-03-06T20:12:39.604Z,29.60
2023-03-06T20:15:06.750Z,32.10
2023-03-06T20:17:34.183Z,32.15
2023-03-06T20:20:00.681Z,36.90
2023-03-06T20:22:27.183Z,34.22
2023-03-06T20:24:53.630Z,33.67
2023-03-06T20:27:20.168Z,36.30
2023-03-06T20:29:46.788Z,36.67
2023-03-06T20:32:13.435Z,33.50
2023-03-06T20:34:40.181Z,34.78
2023-03-06T20:37:08.602Z,36.25
2023-03-06T20:39:35.785Z,31.77
2023-03-06T20:42:05.165Z,34.83
2023-03-06T20:44:31.757Z,33.35
2023-03-06T20:46:58.104Z,33.67
2023-03-06T20:49:27.105Z,34.35
2023-03-06T20:51:53.574Z,35.00
2023-03-06T20:54:19.945Z,33.63
2023-03-06T20:56:48.229Z,46.92
2023-03-06T20:59:15.192Z,48.22
2023-03-06T21:01:44.678Z,48.55
2023-03-06T21:04:13.748Z,45.67
2023-03-06T21:06:42.354Z,49.38
2023-03-06T21:09:08.676Z,42.22
2023-03-06T21:11:35.245Z,41.17
2023-03-06T21:14:01.882Z,36.22
2023-03-06T21:16:30.105Z,36.50
2023-03-06T21:18:58.508Z,41.13
2023-03-06T21:21:27.500Z,39.83
2023-03-06T21:23:54.040Z,37.00
2023-03-06T21:26:22.578Z,40.80
2023-03-06T21:28:49.635Z,41.28
2023-03-06T21:31:17.876Z,39.47
2023-03-06T21:33:45.055Z,43.00
2023-03-06T21:36:11.566Z,44.17
2023-03-06T21:38:38.611Z,44.85
2023-03-06T21:41:16.863Z,36.17
2023-03-06T21:43:43.239Z,38.88
2023-03-06T21:46:11.136Z,45.67
2023-03-06T21:48:37.835Z,39.90
2023-03-06T21:51:09.981Z,37.80
2023-03-06T21:53:36.863Z,38.60
2023-03-06T21:56:04.301Z,40.78
2023-03-06T21:58:30.682Z,35.38
2023-03-06T22:00:57.303Z,38.58
2023-03-06T22:03:24.095Z,40.75
2023-03-06T22:05:51.911Z,38.67
2023-03-06T22:08:24.209Z,37.35
2023-03-06T22:10:50.600Z,41.67
2023-03-06T22:13:16.933Z,60.95
2023-03-06T22:15:51.666Z,65.05
2023-03-06T22:18:18.195Z,56.35
2023-03-06T22:20:45.033Z,50.80
2023-03-06T22:23:11.865Z,59.25
2023-03-06T22:25:38.290Z,46.33
2023-03-06T22:28:04.588Z,67.40
2023-03-06T22:30:30.896Z,54.15
2023-03-06T22:32:57.255Z,54.40
2023-03-06T22:35:23.621Z,43.20
2023-03-06T22:37:49.906Z,59.00
2023-03-06T22:40:16.622Z,53.70
2023-03-06T22:42:43.049Z,48.13
2023-03-06T22:45:09.794Z,58.08
2023-03-06T22:47:36.838Z,71.35
2023-03-06T22:50:04.422Z,59.85
2023-03-06T22:52:30.732Z,120.22
2023-03-06T22:54:57.027Z,92.40
2023-03-06T22:57:23.376Z,68.55
2023-03-06T22:59:49.665Z,64.70
2023-03-06T23:02:15.978Z,109.32
2023-03-06T23:04:42.385Z,86.53
2023-03-06T23:07:08.720Z,75.55
2023-03-06T23:09:35.004Z,79.97
2023-03-06T23:12:19.744Z,74.70
2023-03-06T23:15:05.121Z,72.93
2023-03-06T23:17:51.089Z,61.08
2023-03-06T23:20:41.578Z,49.60
2023-03-06T23:23:27.030Z,46.13
2023-03-06T23:25:59.065Z,45.30
2023-03-06T23:28:26.142Z,46.35
2023-03-06T23:30:52.556Z,43.65
2023-03-06T23:33:19.067Z,42.83
2023-03-06T23:35:45.584Z,47.88
2023-03-06T23:38:12.339Z,43.67
2023-03-06T23:40:38.960Z,43.28
2023-03-06T23:43:05.460Z,47.45
2023-03-06T23:45:32.049Z,41.92
2023-03-06T23:47:58.806Z,46.72
2023-03-06T23:50:26.169Z,44.35
2023-03-06T23:52:53.585Z,42.85
2023-03-06T23:55:20.052Z,44.55
2023-03-06T23:57:46.370Z,40.45
